Time;durP1;ratioP1;P1;durP2;ratioP2;P2;SDS_P1;SDS_P2;PMS_P1;PMS_P2;Temp;Humidity;BMP_temperature;BMP_pressure;BME280_temperature;BME280_humidity;BME280_pressure;Samples;Min_cycle;Max_cycle;Signal;HPM_P1;HPM_P2
2023/03/25 00:00:57;;;;;;;11.48;2.30;;;10.10;99.90;;;;;;5106772;28;20036;-84
2023/03/25 00:03:32;;;;;;;11.10;2.53;;;10.10;99.90;;;;;;5096614;28;20036;-83
2023/03/25 00:05:58;;;;;;;15.32;2.70;;;10.10;99.90;;;;;;5089782;28;20515;-84
2023/03/25 00:08:25;;;;;;;11.70;1.95;;;10.10;99.90;;;;;;5097053;28;20122;-83
2023/03/25 00:10:52;;;;;;;14.48;2.60;;;10.10;99.90;;;;;;5113731;28;20031;-83
2023/03/25 00:13:18;;;;;;;12.95;2.60;;;10.10;99.90;;;;;;5096532;28;20084;-83
2023/03/25 00:15:47;;;;;;;12.85;2.70;;;10.00;99.90;;;;;;5092177;28;20110;-83
2023/03/25 00:18:16;;;;;;;13.68;2.30;;;10.00;99.90;;;;;;5113593;28;20120;-82
2023/03/25 00:20:44;;;;;;;18.42;2.20;;;10.00;99.90;;;;;;5096424;28;20129;-84
2023/03/25 00:23:11;;;;;;;13.85;2.00;;;10.00;99.90;;;;;;5113530;28;20043;-84
2023/03/25 00:25:37;;;;;;;11.23;2.35;;;10.00;99.90;;;;;;5113608;28;20031;-83
2023/03/25 00:28:03;;;;;;;17.35;2.10;;;10.00;99.90;;;;;;5108867;28;20028;-83
2023/03/25 00:30:28;;;;;;;13.30;2.40;;;9.90;99.90;;;;;;5105055;28;20044;-82
2023/03/25 00:32:54;;;;;;;17.27;2.85;;;9.80;99.90;;;;;;5108556;28;20542;-83
2023/03/25 00:35:20;;;;;;;12.23;2.33;;;9.70;99.90;;;;;;5108196;28;20028;-83
2023/03/25 00:37:56;;;;;;;11.10;2.53;;;9.70;99.90;;;;;;5102224;28;20035;-84
2023/03/25 00:40:22;;;;;;;11.98;2.63;;;9.70;99.90;;;;;;5113300;27;20040;-83
2023/03/25 00:42:49;;;;;;;12.65;2.40;;;9.60;99.90;;;;;;5105565;27;20118;-83
2023/03/25 00:45:15;;;;;;;11.98;2.35;;;9.60;99.90;;;;;;5112203;28;20047;-83
2023/03/25 00:47:41;;;;;;;11.45;2.75;;;9.60;99.90;;;;;;5107757;28;20043;-84
2023/03/25 00:50:07;;;;;;;14.88;2.67;;;9.60;99.90;;;;;;5107549;28;20034;-83
2023/03/25 00:52:32;;;;;;;12.57;2.28;;;9.60;99.90;;;;;;5092071;28;20063;-84
2023/03/25 00:54:58;;;;;;;11.25;2.70;;;9.50;99.90;;;;;;5112828;27;20032;-82
2023/03/25 00:57:23;;;;;;;12.00;2.00;;;9.50;99.90;;;;;;5108243;28;20060;-83
2023/03/25 00:59:49;;;;;;;13.98;2.55;;;9.50;99.90;;;;;;5095551;28;20114;-84
2023/03/25 01:02:15;;;;;;;10.65;2.20;;;9.40;99.90;;;;;;5139804;27;20376;-83
2023/03/25 01:04:41;;;;;;;17.38;2.33;;;9.40;99.90;;;;;;5127567;27;20046;-84
2023/03/25 01:07:06;;;;;;;14.75;2.78;;;9.30;99.90;;;;;;5139006;27;20036;-83
2023/03/25 01:09:32;;;;;;;13.80;2.35;;;9.20;99.90;;;;;;5110616;28;20383;-83
2023/03/25 01:11:58;;;;;;;16.70;3.17;;;9.10;99.90;;;;;;5112911;28;20116;-82
2023/03/25 01:14:26;;;;;;;14.15;2.30;;;9.10;99.90;;;;;;5107005;28;20087;-82
2023/03/25 01:16:53;;;;;;;14.48;2.60;;;9.00;99.90;;;;;;5105621;28;20046;-83
2023/03/25 01:19:18;;;;;;;16.58;2.88;;;8.90;99.90;;;;;;5095371;28;20083;-82
2023/03/25 01:21:44;;;;;;;12.50;2.47;;;9.00;99.90;;;;;;5091644;28;20103;-82
2023/03/25 01:24:13;;;;;;;13.77;2.70;;;8.90;99.90;;;;;;5091101;28;20048;-83
2023/03/25 01:26:42;;;;;;;14.73;2.50;;;8.90;99.90;;;;;;5110459;28;20031;-83
2023/03/25 01:29:08;;;;;;;12.07;2.58;;;8.90;99.90;;;;;;5089708;28;20392;-83
2023/03/25 01:31:34;;;;;;;17.40;2.45;;;8.90;99.90;;;;;;5088879;28;20040;-82
2023/03/25 01:34:00;;;;;;;19.35;3.33;;;8.80;99.90;;;;;;5110592;28;20388;-84
2023/03/25 01:36:28;;;;;;;17.42;2.85;;;8.90;99.90;;;;;;5142922;27;20035;-83
2023/03/25 01:38:54;;;;;;;18.65;2.90;;;8.80;99.90;;;;;;5095694;28;20402;-83
2023/03/25 01:41:20;;;;;;;16.65;3.47;;;8.80;99.90;;;;;;5085664;28;20089;-83
2023/03/25 01:44:22;;;;;;;16.17;2.92;;;8.80;99.90;;;;;;5104608;27;20051;-83
2023/03/25 01:46:51;;;;;;;18.98;3.38;;;8.80;99.90;;;;;;5097147;27;20043;-82
2023/03/25 01:49:38;;;;;;;14.63;2.65;;;8.80;99.90;;;;;;5107204;28;20036;-82
2023/03/25 01:52:18;;;;;;;15.32;3.13;;;8.80;99.90;;;;;;5089298;28;20050;-83
2023/03/25 01:54:45;;;;;;;15.77;3.08;;;8.70;99.90;;;;;;5105184;28;20388;-83
2023/03/25 01:57:16;;;;;;;16.42;2.83;;;8.80;99.90;;;;;;5103972;28;20039;-83
2023/03/25 01:59:42;;;;;;;19.23;3.10;;;8.80;99.90;;;;;;5103674;27;20036;-82
2023/03/25 02:02:09;;;;;;;14.32;2.28;;;8.80;99.90;;;;;;5106031;27;20702;-83
2023/03/25 02:04:50;;;;;;;21.77;3.15;;;8.80;99.90;;;;;;5089517;28;20054;-83
2023/03/25 02:07:17;;;;;;;23.15;3.55;;;8.80;99.90;;;;;;5107259;28;20048;-82
2023/03/25 02:09:43;;;;;;;20.98;3.20;;;8.80;99.90;;;;;;5109915;27;20046;-83
2023/03/25 02:12:08;;;;;;;17.85;2.70;;;8.80;99.90;;;;;;5089743;28;20035;-84
2023/03/25 02:14:36;;;;;;;20.17;3.13;;;8.80;99.90;;;;;;5142558;27;20552;-83
2023/03/25 02:17:28;;;;;;;16.75;3.08;;;8.80;99.90;;;;;;5103820;28;20149;-83
2023/03/25 02:20:08;;;;;;;21.02;3.53;;;8.80;99.90;;;;;;5103423;28;20078;-83
2023/03/25 02:22:57;;;;;;;26.27;4.38;;;8.80;99.90;;;;;;5109209;27;20528;-83
2023/03/25 02:26:07;;;;;;;20.40;3.60;;;8.80;99.90;;;;;;5124452;27;20055;-83
2023/03/25 02:28:47;;;;;;;22.00;3.67;;;8.90;99.90;;;;;;5086126;28;20141;-84
2023/03/25 02:31:33;;;;;;;23.77;4.47;;;8.90;99.90;;;;;;5141705;27;20047;-83
2023/03/25 02:34:17;;;;;;;22.52;4.10;;;8.90;99.90;;;;;;5105817;28;20438;-83
2023/03/25 02:36:57;;;;;;;21.08;3.53;;;9.00;99.90;;;;;;5104119;28;20036;-83
2023/03/25 02:39:43;;;;;;;22.92;3.65;;;9.00;99.90;;;;;;5111164;28;20503;-82
2023/03/25 02:42:19;;;;;;;25.02;3.83;;;9.00;99.90;;;;;;5106592;28;20487;-84
2023/03/25 02:44:50;;;;;;;24.30;3.85;;;9.00;99.90;;;;;;5085682;28;20075;-83
2023/03/25 02:47:19;;;;;;;21.48;4.07;;;9.00;99.90;;;;;;5100811;28;20032;-83
2023/03/25 02:49:50;;;;;;;22.33;3.95;;;9.00;99.90;;;;;;5133230;27;20031;-84
2023/03/25 02:52:33;;;;;;;23.52;3.95;;;9.00;99.90;;;;;;5103474;28;20535;-84
2023/03/25 02:55:03;;;;;;;17.00;2.70;;;9.00;99.90;;;;;;5103561;28;20047;-83
2023/03/25 02:57:33;;;;;;;24.95;3.78;;;9.00;99.90;;;;;;5110585;27;20081;-83
2023/03/25 02:59:59;;;;;;;22.88;3.80;;;9.00;99.90;;;;;;5115834;27;20410;-83
2023/03/25 03:02:28;;;;;;;24.85;4.32;;;9.10;99.90;;;;;;5110761;27;20066;-83
2023/03/25 03:04:55;;;;;;;21.95;4.38;;;9.10;99.90;;;;;;5106102;28;20036;-82
2023/03/25 03:07:31;;;;;;;22.30;3.58;;;9.10;99.90;;;;;;5105567;28;20405;-82
2023/03/25 03:10:21;;;;;;;20.13;3.60;;;9.10;99.90;;;;;;5099285;27;20059;-83
2023/03/25 03:13:18;;;;;;;20.85;3.30;;;9.10;99.90;;;;;;5086562;28;20039;-84
2023/03/25 03:16:04;;;;;;;13.25;2.47;;;9.10;99.90;;;;;;5060478;28;20044;-82
2023/03/25 03:18:47;;;;;;;21.80;3.10;;;9.10;99.90;;;;;;5089133;28;20043;-82
2023/03/25 03:21:50;;;;;;;15.77;3.28;;;9.00;99.90;;;;;;5088403;28;20035;-83
2023/03/25 03:24:25;;;;;;;19.60;3.03;;;9.00;99.90;;;;;;5104244;28;20126;-83
2023/03/25 03:27:15;;;;;;;22.42;4.15;;;9.10;99.90;;;;;;5103011;28;20064;-83
2023/03/25 03:29:45;;;;;;;19.25;3.00;;;9.00;99.90;;;;;;5097905;28;20042;-82
2023/03/25 03:32:28;;;;;;;18.27;2.72;;;9.00;99.90;;;;;;5105901;28;20115;-83
2023/03/25 03:34:59;;;;;;;23.13;2.67;;;9.00;99.90;;;;;;5104351;28;20032;-83
2023/03/25 03:37:31;;;;;;;17.13;2.92;;;9.00;99.90;;;;;;5103882;28;20489;-85
2023/03/25 03:39:57;;;;;;;15.18;3.40;;;9.00;99.90;;;;;;5101907;28;20038;-83
2023/03/25 03:42:34;;;;;;;19.20;3.28;;;9.00;99.90;;;;;;5109552;28;20088;-82
2023/03/25 03:45:08;;;;;;;25.45;3.55;;;9.00;99.90;;;;;;5104704;28;20426;-82
2023/03/25 03:47:40;;;;;;;25.00;3.25;;;9.00;99.90;;;;;;5104508;28;20040;-82
2023/03/25 03:50:14;;;;;;;20.50;3.15;;;9.00;99.90;;;;;;5105358;28;20403;-83
2023/03/25 03:52:50;;;;;;;24.23;3.40;;;8.90;99.90;;;;;;5091568;28;20056;-84
2023/03/25 03:55:23;;;;;;;18.30;3.00;;;9.00;99.90;;;;;;5105130;28;20526;-83
2023/03/25 03:57:54;;;;;;;21.77;3.22;;;8.90;99.90;;;;;;5109803;28;20036;-83
2023/03/25 04:00:42;;;;;;;17.00;3.17;;;8.90;99.90;;;;;;5091015;28;20040;-83
2023/03/25 04:03:17;;;;;;;18.70;3.08;;;8.90;99.90;;;;;;5099999;28;20044;-83
2023/03/25 04:05:57;;;;;;;18.52;3.30;;;8.90;99.90;;;;;;5105081;28;20036;-83
2023/03/25 04:08:30;;;;;;;23.00;3.03;;;8.80;99.90;;;;;;5087610;28;20056;-83
2023/03/25 04:11:10;;;;;;;17.90;3.22;;;8.80;99.90;;;;;;5099672;28;20426;-84
2023/03/25 04:13:41;;;;;;;16.42;3.55;;;8.80;99.90;;;;;;5106747;28;20047;-82
2023/03/25 04:16:07;;;;;;;19.17;3.35;;;8.90;99.90;;;;;;5084900;28;20089;-83
2023/03/25 04:18:33;;;;;;;20.42;3.05;;;8.80;99.90;;;;;;5105514;28;20040;-82
2023/03/25 04:21:00;;;;;;;14.77;3.15;;;8.90;99.90;;;;;;5093231;28;20046;-83
2023/03/25 04:23:28;;;;;;;18.85;3.53;;;8.90;99.90;;;;;;5107477;28;20047;-82
2023/03/25 04:25:55;;;;;;;24.08;3.40;;;8.90;99.90;;;;;;5094361;28;20032;-84
2023/03/25 04:28:22;;;;;;;19.90;3.35;;;8.90;99.90;;;;;;5107303;28;20487;-83
2023/03/25 04:30:54;;;;;;;18.05;2.92;;;9.00;99.90;;;;;;5111964;27;20078;-83
2023/03/25 04:33:21;;;;;;;20.58;4.32;;;8.90;99.90;;;;;;5111934;27;20044;-82
2023/03/25 04:35:49;;;;;;;20.75;3.50;;;9.00;99.90;;;;;;5112004;28;20088;-85
2023/03/25 04:38:15;;;;;;;21.40;3.28;;;8.90;99.90;;;;;;5106008;28;20036;-83
2023/03/25 04:40:45;;;;;;;16.52;3.28;;;8.90;99.90;;;;;;5103036;28;20031;-84
2023/03/25 04:43:12;;;;;;;18.63;3.45;;;8.90;99.90;;;;;;5121907;27;20526;-83
2023/03/25 04:45:38;;;;;;;14.30;3.00;;;8.80;99.90;;;;;;5110999;28;20103;-84
2023/03/25 04:48:04;;;;;;;20.48;3.65;;;8.80;99.90;;;;;;5089722;28;20132;-84
2023/03/25 04:50:31;;;;;;;21.88;3.92;;;8.80;99.90;;;;;;5106541;27;20040;-82
2023/03/25 04:52:59;;;;;;;16.75;2.90;;;8.80;99.90;;;;;;5105739;27;20032;-83
2023/03/25 04:55:25;;;;;;;18.17;4.28;;;8.80;99.90;;;;;;5109308;28;20044;-83
2023/03/25 04:57:52;;;;;;;24.52;3.85;;;8.80;99.90;;;;;;5107101;28;20035;-83
2023/03/25 05:00:21;;;;;;;22.30;4.63;;;8.80;99.90;;;;;;5113270;27;20044;-83
2023/03/25 05:02:52;;;;;;;16.70;3.13;;;8.80;99.90;;;;;;5112417;28;20044;-83
2023/03/25 05:05:20;;;;;;;19.42;3.38;;;8.80;99.90;;;;;;5111707;27;20510;-83
2023/03/25 05:07:48;;;;;;;19.13;4.18;;;8.80;99.90;;;;;;5111924;27;20051;-84
2023/03/25 05:10:15;;;;;;;20.48;3.45;;;8.80;99.90;;;;;;5095924;28;20035;-84
2023/03/25 05:12:41;;;;;;;17.83;3.58;;;8.80;99.90;;;;;;5104355;28;20036;-84
2023/03/25 05:15:09;;;;;;;21.83;4.15;;;8.80;99.90;;;;;;5095580;28;20537;-82
2023/03/25 05:17:35;;;;;;;20.55;3.47;;;8.80;99.90;;;;;;5087952;28;20658;-83
2023/03/25 05:20:00;;;;;;;20.83;3.40;;;8.90;99.90;;;;;;5107918;27;20032;-83
2023/03/25 05:22:26;;;;;;;23.70;3.47;;;8.90;99.90;;;;;;5105563;27;20040;-83
2023/03/25 05:24:53;;;;;;;22.30;3.47;;;8.90;99.90;;;;;;5095508;28;20028;-83
2023/03/25 05:27:19;;;;;;;24.05;3.65;;;8.90;99.90;;;;;;5112324;28;20046;-84
2023/03/25 05:29:48;;;;;;;19.17;3.75;;;8.90;99.90;;;;;;5106629;28;20505;-83
2023/03/25 05:32:16;;;;;;;23.48;4.57;;;8.90;99.90;;;;;;5105502;27;20063;-83
2023/03/25 05:34:47;;;;;;;19.15;3.22;;;8.90;99.90;;;;;;5108812;28;20122;-83
2023/03/25 05:37:13;;;;;;;20.15;4.35;;;8.90;99.90;;;;;;5091181;28;20063;-84
2023/03/25 05:39:39;;;;;;;19.17;3.47;;;8.90;99.90;;;;;;5089626;28;20032;-83
2023/03/25 05:42:05;;;;;;;23.92;3.35;;;8.90;99.90;;;;;;5107913;28;20036;-83
2023/03/25 05:44:31;;;;;;;18.92;4.47;;;8.90;99.90;;;;;;5109448;28;20119;-83
2023/03/25 05:47:00;;;;;;;19.02;3.22;;;8.90;99.90;;;;;;5108697;27;20063;-83
2023/03/25 05:49:26;;;;;;;23.08;4.03;;;8.90;99.90;;;;;;5115837;27;20403;-84
2023/03/25 05:51:52;;;;;;;24.60;4.80;;;9.00;99.90;;;;;;5086752;28;20527;-83
2023/03/25 05:54:18;;;;;;;22.30;3.78;;;9.00;99.90;;;;;;5109459;27;20040;-84
2023/03/25 05:56:44;;;;;;;23.45;3.47;;;9.00;99.90;;;;;;5105306;28;20032;-83
2023/03/25 05:59:09;;;;;;;17.40;3.38;;;8.90;99.90;;;;;;5111835;28;20080;-84
2023/03/25 06:01:36;;;;;;;17.08;3.05;;;8.90;99.90;;;;;;5110918;27;20399;-84
2023/03/25 06:04:02;;;;;;;23.08;3.90;;;8.90;99.90;;;;;;5090038;28;20036;-83
2023/03/25 06:06:29;;;;;;;24.00;4.10;;;8.90;99.90;;;;;;5114801;27;20048;-84
2023/03/25 06:08:54;;;;;;;23.55;3.45;;;9.00;99.90;;;;;;5110232;28;20094;-83
2023/03/25 06:11:20;;;;;;;19.90;3.78;;;9.00;99.90;;;;;;5090616;28;20064;-83
2023/03/25 06:13:50;;;;;;;17.95;3.63;;;9.00;99.90;;;;;;5107570;28;20066;-83
2023/03/25 06:16:21;;;;;;;20.00;3.53;;;8.80;99.90;;;;;;5103381;27;20050;-83
2023/03/25 06:18:54;;;;;;;19.08;3.72;;;9.00;99.90;;;;;;5105476;28;20047;-83
2023/03/25 06:21:21;;;;;;;;;;;9.00;99.90;;;;;;5104614;28;20085;-84
2023/03/25 06:23:48;;;;;;;23.50;4.22;;;9.00;99.90;;;;;;5094018;28;19919;-85
2023/03/25 06:26:17;;;;;;;15.35;3.00;;;9.10;99.90;;;;;;5103812;28;20047;-84
2023/03/25 06:28:43;;;;;;;18.23;3.17;;;9.10;99.90;;;;;;5110483;28;20050;-84
2023/03/25 06:31:17;;;;;;;19.55;3.60;;;9.00;99.90;;;;;;5107475;28;20036;-84
2023/03/25 06:33:43;;;;;;;21.40;5.10;;;9.10;99.90;;;;;;5110871;28;20040;-85
2023/03/25 06:36:10;;;;;;;27.25;3.65;;;9.00;99.90;;;;;;5115361;27;20088;-84
2023/03/25 06:38:36;;;;;;;19.27;3.70;;;9.10;99.90;;;;;;5109649;28;20041;-84
2023/03/25 06:41:02;;;;;;;24.95;3.65;;;9.00;99.90;;;;;;5111778;28;20038;-84
2023/03/25 06:43:28;;;;;;;23.08;3.70;;;9.00;99.90;;;;;;5110607;28;20422;-85
2023/03/25 06:45:53;;;;;;;19.20;3.50;;;9.00;99.90;;;;;;5088937;28;20119;-84
2023/03/25 06:48:19;;;;;;;21.60;3.92;;;8.90;99.90;;;;;;5132056;27;20043;-82
2023/03/25 06:50:44;;;;;;;25.00;4.32;;;9.00;99.90;;;;;;5109373;28;20047;-84
2023/03/25 06:53:10;;;;;;;20.73;3.03;;;9.00;99.90;;;;;;5107045;28;20042;-83
2023/03/25 06:55:37;;;;;;;20.55;4.13;;;9.10;99.90;;;;;;5100814;28;20032;-84
2023/03/25 06:58:03;;;;;;;19.00;3.20;;;9.10;99.90;;;;;;5104837;28;20487;-85
2023/03/25 07:00:29;;;;;;;18.23;4.05;;;9.10;99.90;;;;;;5093251;28;20031;-84
2023/03/25 07:02:57;;;;;;;21.42;3.25;;;9.10;99.90;;;;;;5102906;28;20027;-84
2023/03/25 07:05:23;;;;;;;25.92;4.07;;;9.10;99.90;;;;;;5085078;28;20040;-84
2023/03/25 07:07:48;;;;;;;17.50;3.30;;;9.20;99.90;;;;;;5108390;28;20066;-84
2023/03/25 07:10:14;;;;;;;15.65;3.35;;;9.30;99.90;;;;;;5107866;28;20435;-84
2023/03/25 07:12:40;;;;;;;20.52;3.50;;;9.40;99.90;;;;;;5093932;28;20075;-84
2023/03/25 07:15:06;;;;;;;16.63;2.45;;;9.50;99.90;;;;;;5110467;28;20112;-84
2023/03/25 07:17:32;;;;;;;17.23;3.25;;;9.60;99.90;;;;;;5093565;28;20039;-84
2023/03/25 07:19:57;;;;;;;17.17;3.05;;;9.60;99.90;;;;;;5107148;28;20453;-83
2023/03/25 07:22:23;;;;;;;15.07;2.97;;;9.60;99.90;;;;;;5102794;28;20036;-85
2023/03/25 07:24:50;;;;;;;12.57;2.63;;;9.60;99.90;;;;;;5090686;28;20044;-85
2023/03/25 07:27:15;;;;;;;17.00;2.72;;;9.40;99.90;;;;;;5107274;28;20032;-85
2023/03/25 07:29:41;;;;;;;11.95;2.28;;;9.40;99.90;;;;;;5107687;28;20119;-85
2023/03/25 07:32:06;;;;;;;14.30;2.65;;;9.30;99.90;;;;;;5090343;28;20043;-84
2023/03/25 07:34:32;;;;;;;15.50;2.67;;;9.20;99.90;;;;;;5124969;28;20050;-83
2023/03/25 07:36:58;;;;;;;22.45;3.67;;;9.20;99.90;;;;;;5110432;28;20070;-84
2023/03/25 07:39:24;;;;;;;17.02;2.95;;;9.10;99.90;;;;;;5144986;27;20084;-84
2023/03/25 07:41:53;;;;;;;18.70;3.92;;;9.10;99.90;;;;;;5110576;28;20035;-85
2023/03/25 07:44:21;;;;;;;18.95;3.33;;;9.10;99.90;;;;;;5104076;28;20050;-84
2023/03/25 07:46:48;;;;;;;14.52;2.53;;;9.10;99.90;;;;;;5123890;28;20079;-84
2023/03/25 07:49:15;;;;;;;17.60;2.42;;;8.90;99.90;;;;;;5090131;28;20114;-84
2023/03/25 07:51:41;;;;;;;16.67;2.80;;;8.80;99.90;;;;;;5090305;28;20410;-85
2023/03/25 07:54:06;;;;;;;17.13;3.20;;;8.80;99.90;;;;;;5089847;28;20032;-84
2023/03/25 07:56:32;;;;;;;13.38;2.42;;;8.70;99.90;;;;;;5123646;27;20048;-84
2023/03/25 07:58:58;;;;;;;19.02;3.30;;;8.70;99.90;;;;;;5099550;27;20035;-85
2023/03/25 08:01:23;;;;;;;11.60;2.72;;;8.70;99.90;;;;;;5098242;27;20023;-84
2023/03/25 08:03:49;;;;;;;17.10;3.13;;;8.70;99.90;;;;;;5119054;27;20384;-83
2023/03/25 08:06:14;;;;;;;11.82;2.60;;;8.70;99.90;;;;;;5112480;28;20043;-84
2023/03/25 08:08:40;;;;;;;10.85;2.22;;;8.60;99.90;;;;;;5116527;27;20417;-84
2023/03/25 08:11:06;;;;;;;21.58;3.60;;;8.80;99.90;;;;;;5102550;28;20035;-84
2023/03/25 08:13:32;;;;;;;12.02;2.25;;;8.60;99.90;;;;;;5105277;27;20132;-85
2023/03/25 08:15:57;;;;;;;7.43;2.00;;;8.60;99.90;;;;;;5116233;28;20059;-86
2023/03/25 08:18:23;;;;;;;12.07;2.00;;;8.60;99.90;;;;;;5149423;27;20035;-83
2023/03/25 08:20:49;;;;;;;12.93;2.90;;;8.60;99.90;;;;;;5095588;28;20419;-83
2023/03/25 08:23:18;;;;;;;11.95;2.13;;;8.60;99.90;;;;;;5093860;28;20103;-83
2023/03/25 08:25:48;;;;;;;10.85;2.03;;;8.60;99.90;;;;;;5093884;28;20395;-83
2023/03/25 08:28:16;;;;;;;10.43;2.40;;;8.70;99.90;;;;;;5107840;28;20040;-83
2023/03/25 08:30:43;;;;;;;15.60;2.20;;;8.70;99.90;;;;;;5109019;28;20038;-84
2023/03/25 08:33:09;;;;;;;16.52;2.80;;;8.80;99.90;;;;;;5093301;28;20564;-83
2023/03/25 08:35:36;;;;;;;15.73;3.08;;;8.90;99.90;;;;;;5076339;28;20043;-83
2023/03/25 08:38:05;;;;;;;16.73;2.78;;;8.90;99.90;;;;;;5076352;28;20028;-83
2023/03/25 08:40:32;;;;;;;18.08;3.10;;;8.90;99.90;;;;;;5093445;28;20042;-83
2023/03/25 08:42:58;;;;;;;16.40;3.25;;;8.90;99.90;;;;;;5093120;28;20051;-83
2023/03/25 08:45:23;;;;;;;14.40;2.97;;;9.00;99.90;;;;;;5093369;28;20044;-82
2023/03/25 08:47:49;;;;;;;15.60;2.83;;;9.00;99.90;;;;;;5128118;27;20047;-83
2023/03/25 08:50:14;;;;;;;16.60;2.72;;;9.10;99.90;;;;;;5076147;28;20039;-84
2023/03/25 08:52:40;;;;;;;19.25;3.50;;;9.10;99.90;;;;;;5127504;27;20039;-83
2023/03/25 08:55:07;;;;;;;15.35;2.95;;;9.20;99.90;;;;;;5130773;27;20031;-83
2023/03/25 08:57:36;;;;;;;16.00;3.47;;;9.10;99.90;;;;;;5114070;28;20122;-84
2023/03/25 09:00:05;;;;;;;17.52;3.20;;;9.10;99.90;;;;;;5105399;28;20040;-83
2023/03/25 09:02:31;;;;;;;18.40;4.55;;;9.10;99.90;;;;;;5129925;27;20033;-82
2023/03/25 09:04:56;;;;;;;17.55;3.13;;;9.10;99.90;;;;;;5127542;27;20042;-82
2023/03/25 09:07:22;;;;;;;15.52;3.05;;;9.10;99.90;;;;;;5091934;28;20036;-83
2023/03/25 09:09:48;;;;;;;18.83;3.03;;;9.30;99.90;;;;;;5128447;27;20043;-83
2023/03/25 09:12:13;;;;;;;21.00;4.20;;;9.50;99.90;;;;;;5143011;27;20075;-82
2023/03/25 09:14:39;;;;;;;15.60;2.80;;;9.60;99.90;;;;;;5104928;28;20036;-83
2023/03/25 09:17:08;;;;;;;12.10;2.78;;;9.70;99.90;;;;;;5092628;28;20038;-83
2023/03/25 09:19:36;;;;;;;16.67;2.33;;;9.80;99.90;;;;;;5108595;28;20532;-82
2023/03/25 09:22:02;;;;;;;18.67;3.40;;;9.80;99.90;;;;;;5094132;28;20040;-82
2023/03/25 09:24:28;;;;;;;17.75;3.03;;;9.80;99.90;;;;;;5092706;28;20055;-82
2023/03/25 09:26:53;;;;;;;14.07;2.33;;;9.90;99.90;;;;;;5131430;27;20057;-83
2023/03/25 09:29:19;;;;;;;15.30;2.55;;;9.90;99.90;;;;;;5101318;28;20059;-83
2023/03/25 09:31:44;;;;;;;16.27;3.00;;;9.90;99.90;;;;;;5091078;28;20039;-82
2023/03/25 09:34:10;;;;;;;14.40;2.50;;;10.00;99.90;;;;;;5109698;27;20499;-82
2023/03/25 09:36:36;;;;;;;14.90;2.67;;;10.10;99.90;;;;;;5109955;27;20039;-82
2023/03/25 09:39:02;;;;;;;15.55;3.08;;;10.30;99.90;;;;;;5103541;27;20027;-82
2023/03/25 09:41:49;;;;;;;17.13;2.45;;;10.50;99.90;;;;;;5108514;27;20110;-83
2023/03/25 09:44:24;;;;;;;12.75;2.63;;;10.60;99.90;;;;;;5111272;27;20076;-81
2023/03/25 09:46:50;;;;;;;12.43;2.38;;;10.50;99.90;;;;;;5111990;28;20637;-83
2023/03/25 09:49:22;;;;;;;14.05;2.90;;;10.50;99.90;;;;;;5116078;27;20126;-82
2023/03/25 09:51:50;;;;;;;12.68;2.35;;;10.40;99.90;;;;;;5094128;28;20031;-83
2023/03/25 09:54:19;;;;;;;13.23;3.20;;;10.40;99.90;;;;;;5094884;28;20047;-82
2023/03/25 09:56:46;;;;;;;12.60;2.42;;;10.30;99.90;;;;;;5094156;28;20032;-83
2023/03/25 09:59:42;;;;;;;12.15;2.45;;;10.30;99.90;;;;;;5116646;27;20035;-82
2023/03/25 10:02:16;;;;;;;13.80;2.83;;;10.60;99.90;;;;;;5112050;28;20372;-82
2023/03/25 10:04:53;;;;;;;10.60;1.95;;;10.60;99.90;;;;;;5129463;27;20040;-83
2023/03/25 10:07:33;;;;;;;14.60;2.03;;;10.30;99.90;;;;;;5110497;28;20492;-83
2023/03/25 10:10:08;;;;;;;14.98;2.50;;;10.10;99.90;;;;;;5105770;28;20394;-82
2023/03/25 10:13:04;;;;;;;17.98;3.03;;;10.10;99.90;;;;;;5109275;28;20497;-84
2023/03/25 10:16:01;;;;;;;13.70;2.70;;;10.10;99.90;;;;;;5110026;28;20080;-83
2023/03/25 10:18:41;;;;;;;11.50;2.90;;;10.10;99.90;;;;;;5096745;27;20051;-83
2023/03/25 10:21:16;;;;;;;15.27;2.97;;;10.20;99.90;;;;;;5109101;28;20031;-83
2023/03/25 10:24:11;;;;;;;9.27;2.38;;;10.20;99.90;;;;;;5094029;28;20464;-81
2023/03/25 10:26:47;;;;;;;10.93;2.53;;;10.30;99.90;;;;;;5108276;28;20048;-83
2023/03/25 10:29:18;;;;;;;13.77;2.50;;;10.20;99.90;;;;;;5108681;28;20050;-83
2023/03/25 10:32:14;;;;;;;14.95;2.33;;;10.20;99.90;;;;;;5108542;28;20052;-84
2023/03/25 10:34:49;;;;;;;15.27;2.65;;;10.20;99.90;;;;;;5110399;28;20044;-83
2023/03/25 10:37:23;;;;;;;16.30;2.90;;;10.30;99.90;;;;;;5106731;28;20040;-84
2023/03/25 10:39:49;;;;;;;17.08;2.95;;;10.40;99.90;;;;;;5109854;27;20028;-85
2023/03/25 10:42:30;;;;;;;12.80;2.80;;;10.40;99.90;;;;;;5106078;28;20080;-84
2023/03/25 10:44:56;;;;;;;14.05;3.08;;;10.50;99.90;;;;;;5113478;27;20115;-83
2023/03/25 10:47:27;;;;;;;13.77;2.70;;;10.50;99.90;;;;;;5112757;27;20149;-83
2023/03/25 10:49:54;;;;;;;14.00;2.58;;;10.50;99.90;;;;;;5106191;28;20522;-83
2023/03/25 10:52:20;;;;;;;19.60;2.80;;;10.50;99.90;;;;;;5091203;28;20039;-84
2023/03/25 10:54:50;;;;;;;15.27;3.50;;;10.50;99.90;;;;;;5092123;28;20077;-83
2023/03/25 10:57:29;;;;;;;14.82;2.88;;;10.50;99.90;;;;;;5110180;28;20651;-83
2023/03/25 11:00:17;;;;;;;16.88;2.95;;;10.50;99.90;;;;;;5105361;28;20028;-84
2023/03/25 11:02:44;;;;;;;14.07;3.13;;;10.40;99.90;;;;;;5110106;28;20118;-83
2023/03/25 11:05:13;;;;;;;13.77;2.38;;;10.50;99.90;;;;;;5107981;27;20046;-84
2023/03/25 11:07:43;;;;;;;11.02;2.35;;;10.50;99.90;;;;;;5111656;27;20035;-83
2023/03/25 11:10:17;;;;;;;14.57;2.63;;;10.60;99.90;;;;;;5110685;28;20042;-82
2023/03/25 11:12:47;;;;;;;14.32;2.58;;;10.60;99.90;;;;;;5130789;27;20061;-82
2023/03/25 11:15:15;;;;;;;11.77;2.63;;;10.70;99.90;;;;;;5110858;28;20035;-82
2023/03/25 11:17:46;;;;;;;13.85;2.60;;;10.90;99.90;;;;;;5093194;28;20039;-82
2023/03/25 11:20:26;;;;;;;13.05;2.30;;;11.00;99.90;;;;;;5110582;28;20036;-82
2023/03/25 11:22:53;;;;;;;18.23;2.75;;;11.00;99.90;;;;;;5105687;28;20418;-82
2023/03/25 11:25:25;;;;;;;13.07;2.60;;;10.90;99.90;;;;;;5106582;28;20046;-83
2023/03/25 11:27:57;;;;;;;15.48;2.65;;;10.90;99.90;;;;;;5101172;28;20039;-83
2023/03/25 11:30:24;;;;;;;9.95;2.13;;;10.90;99.90;;;;;;5110507;28;20032;-84
2023/03/25 11:33:13;;;;;;;13.88;2.50;;;11.10;99.90;;;;;;5106715;28;20054;-84
2023/03/25 11:35:43;;;;;;;10.52;1.90;;;11.30;99.90;;;;;;5103342;28;20363;-85
2023/03/25 11:38:19;;;;;;;11.13;2.00;;;11.30;99.90;;;;;;5105182;28;20039;-84
2023/03/25 11:40:56;;;;;;;13.75;2.40;;;11.20;99.90;;;;;;5093517;28;20487;-83
2023/03/25 11:43:25;;;;;;;11.38;2.05;;;11.30;99.90;;;;;;5107041;28;20048;-82
2023/03/25 11:45:51;;;;;;;10.30;2.30;;;11.40;99.90;;;;;;5125762;27;20418;-82
2023/03/25 11:48:20;;;;;;;13.38;1.80;;;11.30;99.90;;;;;;5105339;28;20119;-84
2023/03/25 11:50:51;;;;;;;10.15;2.05;;;11.30;99.90;;;;;;5105964;28;20122;-84
2023/03/25 11:53:19;;;;;;;9.73;2.20;;;11.30;99.90;;;;;;5091236;28;20452;-84
2023/03/25 11:55:49;;;;;;;11.70;2.33;;;11.40;99.90;;;;;;5128892;27;20096;-84
2023/03/25 11:58:18;;;;;;;9.90;1.83;;;11.70;99.90;;;;;;5082159;28;20040;-83
2023/03/25 12:00:48;;;;;;;11.82;2.53;;;11.90;99.90;;;;;;5106272;28;20044;-83
2023/03/25 12:03:13;;;;;;;9.93;2.17;;;11.80;99.90;;;;;;5103736;28;20039;-83
2023/03/25 12:05:40;;;;;;;8.68;1.98;;;11.70;99.90;;;;;;5090568;28;20036;-82
2023/03/25 12:08:14;;;;;;;13.65;2.22;;;11.70;99.90;;;;;;5105037;28;20036;-83
2023/03/25 12:10:54;;;;;;;9.68;2.00;;;11.60;99.90;;;;;;5104472;28;20502;-82
2023/03/25 12:13:34;;;;;;;12.18;2.17;;;11.90;99.90;;;;;;5104334;28;20040;-83
2023/03/25 12:16:26;;;;;;;8.80;2.22;;;12.10;99.90;;;;;;5104824;28;20048;-83
2023/03/25 12:18:58;;;;;;;10.80;2.85;;;12.00;99.90;;;;;;5123615;27;20058;-83
2023/03/25 12:21:51;;;;;;;9.05;2.00;;;12.20;99.90;;;;;;5091858;28;20088;-82
2023/03/25 12:24:54;;;;;;;7.90;2.25;;;12.20;99.90;;;;;;5091557;28;20070;-83
2023/03/25 12:27:42;;;;;;;12.10;1.95;;;11.90;99.90;;;;;;5091427;28;20499;-83
2023/03/25 12:30:36;;;;;;;11.65;2.60;;;11.80;99.90;;;;;;5086558;28;20104;-82
2023/03/25 12:33:31;;;;;;;11.05;1.98;;;11.70;99.90;;;;;;5111600;28;20040;-82
2023/03/25 12:36:12;;;;;;;10.00;1.60;;;11.90;99.90;;;;;;5090809;28;20047;-82
2023/03/25 12:38:53;;;;;;;10.60;2.17;;;12.00;99.90;;;;;;5105607;28;20118;-82
2023/03/25 12:41:35;;;;;;;11.43;1.85;;;11.90;99.90;;;;;;5106161;28;20028;-82
2023/03/25 12:44:18;;;;;;;10.15;2.45;;;11.80;99.90;;;;;;5142125;27;20067;-82
2023/03/25 12:47:05;;;;;;;7.78;1.70;;;11.70;99.90;;;;;;5105832;28;20082;-83
2023/03/25 12:49:43;;;;;;;9.60;1.95;;;11.70;99.90;;;;;;5113206;28;20042;-82
2023/03/25 12:52:34;;;;;;;13.13;2.58;;;11.70;99.90;;;;;;5108502;28;20039;-81
2023/03/25 12:55:07;;;;;;;14.55;1.95;;;11.70;99.90;;;;;;5107860;27;20040;-84
2023/03/25 12:57:39;;;;;;;9.25;2.05;;;11.70;99.90;;;;;;5113316;27;20052;-81
2023/03/25 13:00:21;;;;;;;8.13;1.85;;;11.80;99.90;;;;;;5116041;27;20043;-83
2023/03/25 13:03:29;;;;;;;10.75;2.10;;;11.80;99.90;;;;;;5111603;28;20040;-82
2023/03/25 13:06:20;;;;;;;10.50;2.50;;;11.80;99.90;;;;;;5109057;28;20032;-81